createdAt,value
2023-02-16T00:00:29.984Z,9.30
2023-02-16T00:03:00.483Z,9.40
2023-02-16T00:05:31.828Z,9.40
2023-02-16T00:08:01.457Z,9.40
2023-02-16T00:10:34.707Z,9.40
2023-02-16T00:13:20.728Z,9.40
2023-02-16T00:15:49.494Z,9.40
2023-02-16T00:18:22.172Z,9.40
2023-02-16T00:20:50.811Z,9.40
2023-02-16T00:23:19.385Z,9.40
2023-02-16T00:25:47.983Z,9.50
2023-02-16T00:28:21.333Z,9.50
2023-02-16T00:30:50.789Z,9.40
2023-02-16T00:33:22.935Z,9.40
2023-02-16T00:35:51.414Z,9.40
2023-02-16T00:38:19.806Z,9.40
2023-02-16T00:40:48.330Z,9.50
2023-02-16T00:43:27.046Z,9.50
2023-02-16T00:45:56.615Z,9.50
2023-02-16T00:48:26.866Z,9.50
2023-02-16T00:50:55.367Z,9.50
2023-02-16T00:53:23.840Z,9.50
2023-02-16T00:55:52.339Z,9.50
2023-02-16T00:58:25.556Z,9.50
2023-02-16T01:00:56.275Z,9.50
2023-02-16T01:03:30.089Z,9.50
2023-02-16T01:06:12.531Z,9.50
2023-02-16T01:08:58.762Z,9.40
2023-02-16T01:11:27.961Z,9.40
2023-02-16T01:13:58.082Z,9.50
2023-02-16T01:16:34.559Z,9.50
2023-02-16T01:19:05.168Z,9.50
2023-02-16T01:21:33.958Z,9.50
2023-02-16T01:24:03.212Z,9.50
2023-02-16T01:26:33.802Z,9.50
2023-02-16T01:29:02.298Z,9.50
2023-02-16T01:31:30.724Z,9.40
2023-02-16T01:33:59.200Z,9.40
2023-02-16T01:36:33.766Z,9.40
2023-02-16T01:39:02.715Z,9.40
2023-02-16T01:41:45.633Z,9.40
2023-02-16T01:44:17.849Z,9.40
2023-02-16T01:46:52.088Z,9.40
2023-02-16T01:49:21.718Z,9.50
2023-02-16T01:51:56.926Z,9.40
2023-02-16T01:54:42.932Z,9.40
2023-02-16T01:57:22.538Z,9.40
2023-02-16T02:00:09.388Z,9.40
2023-02-16T02:02:49.269Z,9.40
2023-02-16T02:05:37.528Z,9.40
2023-02-16T02:08:32.576Z,9.40
2023-02-16T02:11:11.405Z,9.40
2023-02-16T02:13:45.551Z,9.40
2023-02-16T02:16:18.709Z,9.40
2023-02-16T02:18:48.549Z,9.40
2023-02-16T02:22:02.623Z,9.50
2023-02-16T02:25:13.037Z,9.50
2023-02-16T02:27:48.908Z,9.50
2023-02-16T02:30:42.622Z,9.50
2023-02-16T02:33:24.253Z,9.40
2023-02-16T02:36:04.703Z,9.50
2023-02-16T02:38:43.194Z,9.50
2023-02-16T02:41:21.900Z,9.50
2023-02-16T02:43:57.831Z,9.50
2023-02-16T02:46:30.402Z,9.50
2023-02-16T02:48:59.404Z,9.50
2023-02-16T02:51:31.014Z,9.50
2023-02-16T02:54:26.223Z,9.50
2023-02-16T02:57:29.739Z,9.50
2023-02-16T03:00:21.253Z,9.50
2023-02-16T03:02:52.496Z,9.60
2023-02-16T03:05:23.481Z,9.60
2023-02-16T03:07:57.528Z,9.60
2023-02-16T03:10:51.562Z,9.60
2023-02-16T03:13:22.883Z,9.60
2023-02-16T03:15:56.004Z,9.60
2023-02-16T03:18:44.634Z,9.60
2023-02-16T03:21:33.189Z,9.60
2023-02-16T03:24:22.010Z,9.60
2023-02-16T03:27:09.466Z,9.60
2023-02-16T03:29:38.921Z,9.60
2023-02-16T03:32:09.038Z,9.60
2023-02-16T03:34:38.512Z,9.60
2023-02-16T03:37:07.405Z,9.60
2023-02-16T03:39:57.237Z,9.60
2023-02-16T03:42:26.025Z,9.60
2023-02-16T03:44:54.507Z,9.70
2023-02-16T03:47:24.476Z,9.60
2023-02-16T03:49:52.914Z,9.60
2023-02-16T03:52:21.341Z,9.70
2023-02-16T03:54:49.856Z,9.70
2023-02-16T03:57:18.261Z,9.60
2023-02-16T03:59:50.847Z,9.70
2023-02-16T04:02:19.639Z,9.70
2023-02-16T04:04:49.499Z,9.70
2023-02-16T04:07:17.968Z,9.70
2023-02-16T04:09:46.359Z,9.70
2023-02-16T04:12:32.084Z,9.70
2023-02-16T04:15:00.570Z,9.70
2023-02-16T04:17:28.995Z,9.70
2023-02-16T04:19:58.925Z,9.70
2023-02-16T04:22:27.555Z,9.70
2023-02-16T04:24:56.056Z,9.70
2023-02-16T04:27:24.587Z,9.70
2023-02-16T04:29:53.115Z,9.70
2023-02-16T04:32:21.643Z,9.70
2023-02-16T04:34:50.138Z,9.80
2023-02-16T04:37:20.031Z,9.80
2023-02-16T04:39:51.775Z,9.70
2023-02-16T04:42:20.215Z,9.80
2023-02-16T04:44:49.052Z,9.80
2023-02-16T04:47:17.528Z,9.70
2023-02-16T04:49:50.255Z,9.80
2023-02-16T04:52:21.201Z,9.80
2023-02-16T04:54:49.801Z,9.80
2023-02-16T04:57:24.286Z,9.80
2023-02-16T04:59:52.789Z,9.70
2023-02-16T05:02:21.225Z,9.70
2023-02-16T05:04:50.128Z,9.80
2023-02-16T05:07:20.170Z,9.80
2023-02-16T05:09:51.137Z,9.70
2023-02-16T05:12:38.160Z,9.80
2023-02-16T05:15:10.231Z,9.80
2023-02-16T05:17:40.386Z,9.80
2023-02-16T05:20:12.591Z,9.80
2023-02-16T05:22:43.625Z,9.80
2023-02-16T05:25:12.128Z,9.80
2023-02-16T05:27:40.651Z,9.80
2023-02-16T05:30:10.030Z,9.80
2023-02-16T05:32:41.103Z,9.70
2023-02-16T05:35:12.753Z,9.70
2023-02-16T05:37:42.859Z,9.70
2023-02-16T05:40:12.521Z,9.70
2023-02-16T05:42:41.097Z,9.70
2023-02-16T05:45:12.700Z,9.70
2023-02-16T05:47:41.135Z,9.70
2023-02-16T05:50:09.994Z,9.70
2023-02-16T05:52:38.435Z,9.70
2023-02-16T05:55:08.499Z,9.70
2023-02-16T05:57:36.944Z,9.70
2023-02-16T06:00:07.251Z,9.70
2023-02-16T06:02:35.831Z,9.70
2023-02-16T06:05:04.276Z,9.70
2023-02-16T06:07:32.636Z,9.70
2023-02-16T06:10:01.033Z,9.70
2023-02-16T06:12:32.084Z,9.80
2023-02-16T06:15:00.544Z,9.70
2023-02-16T06:17:29.578Z,9.80
2023-02-16T06:19:58.194Z,9.70
2023-02-16T06:22:26.728Z,9.70
2023-02-16T06:24:55.210Z,9.70
2023-02-16T06:27:23.991Z,9.70
2023-02-16T06:29:54.160Z,9.70
2023-02-16T06:32:23.015Z,9.80
2023-02-16T06:34:51.878Z,9.70
2023-02-16T06:37:22.228Z,9.70
2023-02-16T06:39:50.647Z,9.70
2023-02-16T06:42:18.979Z,9.80
2023-02-16T06:44:47.901Z,9.80
2023-02-16T06:48:43.504Z,9.70
2023-02-16T06:52:03.612Z,9.70
2023-02-16T06:58:22.353Z,9.70
2023-02-16T07:02:03.670Z,9.70
2023-02-16T07:05:03.719Z,9.70
2023-02-16T09:59:14.646Z,11.70
2023-02-16T10:01:49.639Z,11.80
2023-02-16T10:04:54.176Z,11.90
2023-02-16T10:07:49.482Z,12.00
2023-02-16T10:10:24.020Z,12.10
2023-02-16T10:13:07.153Z,12.10
2023-02-16T10:16:03.267Z,12.20
2023-02-16T10:18:57.321Z,12.20
2023-02-16T10:21:32.936Z,12.30
2023-02-16T10:24:16.205Z,12.30
2023-02-16T10:26:53.407Z,12.30
2023-02-16T10:29:56.181Z,12.30
2023-02-16T10:33:02.053Z,12.30
2023-02-16T10:35:55.675Z,12.30
2023-02-16T10:38:41.572Z,12.30
2023-02-16T10:42:13.512Z,12.30
2023-02-16T10:44:58.438Z,12.40
2023-02-16T10:48:22.554Z,12.40
2023-02-16T10:51:07.191Z,12.50
2023-02-16T10:54:02.417Z,12.50
2023-02-16T11:00:00.690Z,12.40
2023-02-16T11:02:45.452Z,12.40
2023-02-16T11:08:25.059Z,12.40
2023-02-16T11:14:25.471Z,12.40
2023-02-16T11:17:29.115Z,12.40
2023-02-16T11:20:23.153Z,12.40
2023-02-16T11:23:07.997Z,12.40
2023-02-16T11:25:52.543Z,12.50
2023-02-16T11:28:30.325Z,12.50
2023-02-16T11:34:16.690Z,12.70
2023-02-16T12:01:55.522Z,12.90
2023-02-16T12:04:52.027Z,12.90
2023-02-16T12:07:44.909Z,12.90
2023-02-16T12:13:44.134Z,12.90
2023-02-16T12:16:48.963Z,12.90
2023-02-16T12:19:43.409Z,12.90
2023-02-16T13:56:24.845Z,13.30
2023-02-16T13:59:09.764Z,13.40
2023-02-16T14:02:03.200Z,13.40
2023-02-16T14:05:17.066Z,13.40
2023-02-16T14:11:25.805Z,13.40
2023-02-16T14:14:10.469Z,13.40
2023-02-16T14:16:55.360Z,13.40
2023-02-16T14:22:26.599Z,13.40
2023-02-16T14:28:05.170Z,13.40
2023-02-16T14:31:01.196Z,13.40
2023-02-16T14:33:45.224Z,13.40
2023-02-16T14:36:20.445Z,13.40
2023-02-16T14:39:04.846Z,13.40
2023-02-16T14:41:49.520Z,13.40
2023-02-16T14:45:04.358Z,13.40
2023-02-16T15:04:43.585Z,13.40
2023-02-16T15:07:13.542Z,13.30
2023-02-16T15:09:57.700Z,13.30
2023-02-16T15:12:52.044Z,13.30
2023-02-16T15:15:27.769Z,13.30
2023-02-16T15:18:03.364Z,13.40
2023-02-16T15:21:26.973Z,13.30
2023-02-16T15:24:30.612Z,13.30
2023-02-16T15:27:14.296Z,13.30
2023-02-16T15:29:50.713Z,13.30
2023-02-16T15:32:53.973Z,13.30
2023-02-16T15:35:29.940Z,13.30
2023-02-16T15:39:03.370Z,13.30
2023-02-16T15:41:48.768Z,13.20
2023-02-16T15:44:42.325Z,13.20
2023-02-16T15:47:27.482Z,13.30
2023-02-16T15:50:13.454Z,13.30
2023-02-16T15:52:48.273Z,13.30
2023-02-16T15:55:33.460Z,13.30
2023-02-16T15:58:16.692Z,13.40
2023-02-16T16:01:01.547Z,13.40
2023-02-16T16:06:23.248Z,13.40
2023-02-16T16:08:58.443Z,13.40
2023-02-16T16:11:51.879Z,13.30
2023-02-16T16:17:22.885Z,13.30
2023-02-16T16:19:56.863Z,13.30
2023-02-16T16:23:29.626Z,13.30
2023-02-16T16:25:59.376Z,13.30
2023-02-16T16:29:19.857Z,13.20
2023-02-16T16:31:55.687Z,13.20
2023-02-16T16:34:40.493Z,13.20
2023-02-16T16:40:59.075Z,13.20
2023-02-16T16:44:32.254Z,13.20
2023-02-16T16:53:54.973Z,13.20
2023-02-16T17:22:31.749Z,13.10
2023-02-16T17:25:55.438Z,13.00
2023-02-16T17:28:38.787Z,13.00
2023-02-16T17:31:24.052Z,13.00
2023-02-16T17:34:08.752Z,12.90
2023-02-16T17:36:52.999Z,12.90
2023-02-16T17:39:37.917Z,12.90
2023-02-16T17:42:33.064Z,12.90
2023-02-16T17:45:18.407Z,12.80
2023-02-16T17:48:02.275Z,12.80
2023-02-16T17:57:08.953Z,12.80
2023-02-16T17:59:56.803Z,12.80
2023-02-16T18:02:39.148Z,12.70
2023-02-16T18:05:41.448Z,12.70
2023-02-16T18:08:29.385Z,12.70
2023-02-16T18:11:15.670Z,12.70
2023-02-16T18:13:46.346Z,12.70
2023-02-16T18:16:18.590Z,12.70
2023-02-16T18:18:47.194Z,12.70
2023-02-16T18:21:15.619Z,12.70
2023-02-16T18:23:44.138Z,12.70
2023-02-16T18:26:15.081Z,12.60
2023-02-16T18:28:45.371Z,12.60
2023-02-16T18:35:23.577Z,12.60
2023-02-16T18:37:52.001Z,12.50
2023-02-16T18:40:21.261Z,12.50
2023-02-16T18:42:49.750Z,12.50
2023-02-16T18:45:19.604Z,12.50
2023-02-16T18:47:47.997Z,12.50
2023-02-16T18:50:16.598Z,12.50
2023-02-16T18:52:45.153Z,12.50
2023-02-16T18:55:15.201Z,12.50
2023-02-16T18:57:43.871Z,12.50
2023-02-16T19:00:14.952Z,12.50
2023-02-16T19:02:44.715Z,12.40
2023-02-16T19:05:13.272Z,12.50
2023-02-16T19:07:41.648Z,12.40
2023-02-16T19:10:10.858Z,12.50
2023-02-16T19:12:39.555Z,12.40
2023-02-16T19:15:09.712Z,12.50
2023-02-16T19:17:39.051Z,12.40
2023-02-16T19:20:12.250Z,12.40
2023-02-16T19:22:40.940Z,12.40
2023-02-16T19:25:09.706Z,12.40
2023-02-16T19:27:38.103Z,12.40
2023-02-16T19:30:07.837Z,12.40
2023-02-16T19:32:36.791Z,12.40
2023-02-16T19:35:05.485Z,12.40
2023-02-16T19:37:35.307Z,12.40
2023-02-16T19:40:03.815Z,12.40
2023-02-16T19:42:32.135Z,12.40
2023-02-16T19:45:00.473Z,12.40
2023-02-16T19:47:28.867Z,12.40
2023-02-16T19:49:57.214Z,12.40
2023-02-16T19:52:25.972Z,12.40
2023-02-16T19:54:55.768Z,12.40
2023-02-16T19:57:24.108Z,12.40
2023-02-16T19:59:52.463Z,12.40
2023-02-16T20:02:20.853Z,12.40
2023-02-16T20:04:49.214Z,12.40
2023-02-16T20:07:17.698Z,12.30
2023-02-16T20:09:45.987Z,12.40
2023-02-16T20:12:15.670Z,12.40
2023-02-16T20:14:44.174Z,12.40
2023-02-16T20:17:12.469Z,12.40
2023-02-16T20:19:40.860Z,12.40
2023-02-16T20:22:09.200Z,12.40
2023-02-16T20:24:37.525Z,12.40
2023-02-16T20:27:06.011Z,12.40
2023-02-16T20:29:35.807Z,12.40
2023-02-16T20:32:05.684Z,12.40
2023-02-16T20:34:34.509Z,12.40
2023-02-16T20:37:02.780Z,12.40
2023-02-16T20:39:31.166Z,12.40
2023-02-16T20:41:59.502Z,12.40
2023-02-16T20:44:28.367Z,12.40
2023-02-16T20:46:58.047Z,12.40
2023-02-16T20:49:26.402Z,12.30
2023-02-16T20:51:54.847Z,12.30
2023-02-16T20:54:23.176Z,12.40
2023-02-16T20:56:51.438Z,12.30
2023-02-16T20:59:19.925Z,12.30
2023-02-16T21:01:51.109Z,12.30
2023-02-16T21:04:22.144Z,12.30
2023-02-16T21:06:50.746Z,12.30
2023-02-16T21:09:19.142Z,12.30
2023-02-16T21:11:47.556Z,12.30
2023-02-16T21:14:15.945Z,12.30
2023-02-16T21:16:44.266Z,12.30
2023-02-16T21:19:22.657Z,12.30
2023-02-16T21:21:53.231Z,12.30
2023-02-16T21:24:21.566Z,12.30
2023-02-16T21:26:49.869Z,12.30
2023-02-16T21:29:18.517Z,12.30
2023-02-16T21:31:46.961Z,12.20
2023-02-16T21:34:15.412Z,12.30
2023-02-16T21:36:44.378Z,12.30
2023-02-16T21:39:14.133Z,12.30
2023-02-16T21:41:41.560Z,12.30
2023-02-16T21:44:11.218Z,12.30
2023-02-16T21:46:41.316Z,12.30
2023-02-16T21:49:13.922Z,12.30
2023-02-16T21:51:43.345Z,12.30
2023-02-16T21:54:16.197Z,12.30
2023-02-16T21:56:45.740Z,12.20
2023-02-16T21:59:16.891Z,12.20
2023-02-16T22:01:47.818Z,12.20
2023-02-16T22:04:18.427Z,12.20
2023-02-16T22:06:49.187Z,12.20
2023-02-16T22:09:21.094Z,12.30
2023-02-16T22:11:49.978Z,12.20
2023-02-16T22:14:18.707Z,12.30
2023-02-16T22:16:48.112Z,12.20
2023-02-16T22:19:18.606Z,12.20
2023-02-16T22:21:48.092Z,12.20
2023-02-16T22:24:20.304Z,12.20
2023-02-16T22:26:50.133Z,12.20
2023-02-16T22:29:19.671Z,12.20
2023-02-16T22:31:49.573Z,12.20
2023-02-16T22:34:19.990Z,12.20
2023-02-16T22:36:48.445Z,12.20
2023-02-16T22:39:20.740Z,12.20
2023-02-16T22:41:50.966Z,12.20
2023-02-16T22:44:19.263Z,12.20
2023-02-16T22:46:47.588Z,12.20
2023-02-16T22:49:16.083Z,12.20
2023-02-16T22:51:44.646Z,12.20
2023-02-16T22:54:14.431Z,12.10
2023-02-16T22:56:44.302Z,12.10
2023-02-16T22:59:13.496Z,12.10
2023-02-16T23:01:42.020Z,12.10
2023-02-16T23:04:15.296Z,12.10
2023-02-16T23:06:45.121Z,12.10
2023-02-16T23:09:15.973Z,12.10
2023-02-16T23:11:46.155Z,12.10
2023-02-16T23:14:17.288Z,12.10
2023-02-16T23:16:47.142Z,12.10
2023-02-16T23:19:17.712Z,12.10
2023-02-16T23:21:47.103Z,12.10
2023-02-16T23:24:18.110Z,12.10
2023-02-16T23:26:48.302Z,12.10
2023-02-16T23:29:16.917Z,12.10
2023-02-16T23:31:46.804Z,12.10
2023-02-16T23:34:16.267Z,12.10
2023-02-16T23:36:45.274Z,12.10
2023-02-16T23:39:15.424Z,12.10
2023-02-16T23:41:44.753Z,12.10
2023-02-16T23:44:15.643Z,12.10
2023-02-16T23:46:44.155Z,12.10
2023-02-16T23:49:12.600Z,12.10
2023-02-16T23:51:41.059Z,12.10
2023-02-16T23:54:11.513Z,12.10
2023-02-16T23:56:41.591Z,12.10
2023-02-16T23:59:10.171Z,12.10
